Terminal Aerodrome Forecast
Issued by NWS

Current Version | Previous Version | Text Only | Print | Product List | Glossary On
Versions: 1 2 3 4 5 6 7 8 9 10 11 12 13 14 15 16 17 18 19 20 21 22 23 24 25 26
000
FTUS41 KGYX 291121
TAFAUG
TAF
KAUG 291121Z 2912/3012 VRB03KT P6SM SCT250
     FM300500 15003KT P6SM SCT100
     FM301100 14003KT 1 1/2SM -SN OVC025=

USA.gov is the U.S. government's official web portal to all federal, state and local government web resources and services.